sensor_id;sensor_type;location;lat;lon;timestamp;pressure;altitude;pressure_sealevel;temperature;humidity
73106;BME280;61559;50.476;15.588;2024-01-07T00:01:23;96966.59;;;-0.04;82.85
73106;BME280;61559;50.476;15.588;2024-01-07T00:03:55;96969.38;;;-0.06;83.24
73106;BME280;61559;50.476;15.588;2024-01-07T00:06:26;96967.09;;;-0.06;82.75
73106;BME280;61559;50.476;15.588;2024-01-07T00:08:57;96966.73;;;-0.07;82.63
73106;BME280;61559;50.476;15.588;2024-01-07T00:11:28;96964.41;;;-0.04;82.93
73106;BME280;61559;50.476;15.588;2024-01-07T00:13:59;96963.91;;;-0.04;82.68
73106;BME280;61559;50.476;15.588;2024-01-07T00:16:31;96967.05;;;-0.03;82.16
73106;BME280;61559;50.476;15.588;2024-01-07T00:19:03;96970.73;;;-0.05;82.33
73106;BME280;61559;50.476;15.588;2024-01-07T00:21:35;96964.92;;;-0.06;82.44
73106;BME280;61559;50.476;15.588;2024-01-07T00:24:07;96961.67;;;-0.06;82.35
73106;BME280;61559;50.476;15.588;2024-01-07T00:26:38;96965.27;;;-0.10;81.75
73106;BME280;61559;50.476;15.588;2024-01-07T00:29:09;96966.98;;;-0.13;81.89
73106;BME280;61559;50.476;15.588;2024-01-07T00:31:40;96966.88;;;-0.15;81.61
73106;BME280;61559;50.476;15.588;2024-01-07T00:34:11;96964.89;;;-0.17;81.72
73106;BME280;61559;50.476;15.588;2024-01-07T00:36:43;96969.75;;;-0.18;81.73
73106;BME280;61559;50.476;15.588;2024-01-07T00:39:14;96971.27;;;-0.19;81.99
73106;BME280;61559;50.476;15.588;2024-01-07T00:41:45;96977.55;;;-0.19;82.00
73106;BME280;61559;50.476;15.588;2024-01-07T00:44:16;96981.84;;;-0.19;81.69
73106;BME280;61559;50.476;15.588;2024-01-07T00:46:47;96983.77;;;-0.21;81.36
73106;BME280;61559;50.476;15.588;2024-01-07T00:49:19;96988.00;;;-0.24;81.37
73106;BME280;61559;50.476;15.588;2024-01-07T00:51:50;96988.66;;;-0.26;81.43
73106;BME280;61559;50.476;15.588;2024-01-07T00:54:21;96989.97;;;-0.28;81.17
73106;BME280;61559;50.476;15.588;2024-01-07T00:56:52;96991.06;;;-0.33;80.82
73106;BME280;61559;50.476;15.588;2024-01-07T00:59:23;96987.77;;;-0.37;80.93
73106;BME280;61559;50.476;15.588;2024-01-07T01:01:54;96990.19;;;-0.39;80.70
73106;BME280;61559;50.476;15.588;2024-01-07T01:04:26;96996.44;;;-0.45;80.42
73106;BME280;61559;50.476;15.588;2024-01-07T01:06:57;96998.59;;;-0.50;80.13
73106;BME280;61559;50.476;15.588;2024-01-07T01:09:28;97002.25;;;-0.56;80.05
73106;BME280;61559;50.476;15.588;2024-01-07T01:12:00;96998.34;;;-0.60;80.50
73106;BME280;61559;50.476;15.588;2024-01-07T01:14:31;96995.59;;;-0.65;80.17
73106;BME280;61559;50.476;15.588;2024-01-07T01:17:03;97002.45;;;-0.70;79.92
73106;BME280;61559;50.476;15.588;2024-01-07T01:19:32;96999.48;;;-0.77;80.10
73106;BME280;61559;50.476;15.588;2024-01-07T01:22:04;97000.82;;;-0.82;80.22
73106;BME280;61559;50.476;15.588;2024-01-07T01:24:35;97000.75;;;-0.86;80.65
73106;BME280;61559;50.476;15.588;2024-01-07T01:27:07;97007.77;;;-0.89;80.28
73106;BME280;61559;50.476;15.588;2024-01-07T01:29:40;97008.67;;;-0.92;80.42
73106;BME280;61559;50.476;15.588;2024-01-07T01:32:11;97006.45;;;-0.92;80.78
73106;BME280;61559;50.476;15.588;2024-01-07T01:34:42;97009.58;;;-0.92;80.63
73106;BME280;61559;50.476;15.588;2024-01-07T01:37:14;97008.77;;;-0.93;80.56
73106;BME280;61559;50.476;15.588;2024-01-07T01:39:45;97004.25;;;-0.96;79.84
73106;BME280;61559;50.476;15.588;2024-01-07T01:42:17;97006.86;;;-0.98;79.74
73106;BME280;61559;50.476;15.588;2024-01-07T01:44:49;97005.95;;;-1.00;80.01
73106;BME280;61559;50.476;15.588;2024-01-07T01:47:20;97013.38;;;-1.01;79.97
73106;BME280;61559;50.476;15.588;2024-01-07T01:49:52;97013.55;;;-1.04;79.74
73106;BME280;61559;50.476;15.588;2024-01-07T01:52:23;97015.13;;;-1.04;80.17
73106;BME280;61559;50.476;15.588;2024-01-07T01:54:55;97017.35;;;-1.04;79.91
73106;BME280;61559;50.476;15.588;2024-01-07T01:57:32;97019.10;;;-1.07;79.64
73106;BME280;61559;50.476;15.588;2024-01-07T02:00:05;97022.02;;;-1.07;80.16
73106;BME280;61559;50.476;15.588;2024-01-07T02:02:36;97022.20;;;-1.04;80.42
73106;BME280;61559;50.476;15.588;2024-01-07T02:05:08;97021.15;;;-1.03;80.03
73106;BME280;61559;50.476;15.588;2024-01-07T02:07:40;97022.66;;;-1.03;79.83
73106;BME280;61559;50.476;15.588;2024-01-07T02:10:11;97024.23;;;-1.03;79.96
73106;BME280;61559;50.476;15.588;2024-01-07T02:12:43;97021.65;;;-1.03;79.75
73106;BME280;61559;50.476;15.588;2024-01-07T02:15:13;97025.14;;;-1.02;79.57
73106;BME280;61559;50.476;15.588;2024-01-07T02:17:44;97029.23;;;-1.03;79.53
73106;BME280;61559;50.476;15.588;2024-01-07T02:20:16;97031.90;;;-1.04;79.58
73106;BME280;61559;50.476;15.588;2024-01-07T02:22:47;97031.09;;;-1.05;79.45
73106;BME280;61559;50.476;15.588;2024-01-07T02:25:18;97037.41;;;-1.05;79.47
73106;BME280;61559;50.476;15.588;2024-01-07T02:27:50;97035.33;;;-1.06;79.36
73106;BME280;61559;50.476;15.588;2024-01-07T02:30:21;97031.88;;;-1.07;78.64
73106;BME280;61559;50.476;15.588;2024-01-07T02:32:53;97037.24;;;-1.06;78.90
73106;BME280;61559;50.476;15.588;2024-01-07T02:35:24;97029.20;;;-1.07;78.67
73106;BME280;61559;50.476;15.588;2024-01-07T02:37:56;97034.55;;;-1.07;78.34
73106;BME280;61559;50.476;15.588;2024-01-07T02:40:27;97034.77;;;-1.07;77.98
73106;BME280;61559;50.476;15.588;2024-01-07T02:42:58;97037.29;;;-1.07;78.38
73106;BME280;61559;50.476;15.588;2024-01-07T02:45:28;97042.88;;;-1.04;78.45
73106;BME280;61559;50.476;15.588;2024-01-07T02:47:59;97035.90;;;-1.03;78.19
73106;BME280;61559;50.476;15.588;2024-01-07T02:50:32;97041.42;;;-1.01;77.83
73106;BME280;61559;50.476;15.588;2024-01-07T02:53:03;97034.98;;;-0.98;77.94
73106;BME280;61559;50.476;15.588;2024-01-07T02:55:35;97034.52;;;-0.96;77.76
73106;BME280;61559;50.476;15.588;2024-01-07T02:58:06;97030.90;;;-0.94;77.51
73106;BME280;61559;50.476;15.588;2024-01-07T03:00:36;97031.77;;;-0.92;77.81
73106;BME280;61559;50.476;15.588;2024-01-07T03:03:07;97031.64;;;-0.90;78.40
73106;BME280;61559;50.476;15.588;2024-01-07T03:05:39;97032.16;;;-0.88;78.04
73106;BME280;61559;50.476;15.588;2024-01-07T03:08:10;97032.00;;;-0.87;78.02
73106;BME280;61559;50.476;15.588;2024-01-07T03:10:41;97037.06;;;-0.87;77.97
73106;BME280;61559;50.476;15.588;2024-01-07T03:13:13;97034.36;;;-0.86;77.94
73106;BME280;61559;50.476;15.588;2024-01-07T03:15:44;97038.06;;;-0.86;77.13
73106;BME280;61559;50.476;15.588;2024-01-07T03:18:15;97036.60;;;-0.84;77.33
73106;BME280;61559;50.476;15.588;2024-01-07T03:20:47;97033.02;;;-0.83;77.45
73106;BME280;61559;50.476;15.588;2024-01-07T03:23:18;97031.41;;;-0.82;77.13
73106;BME280;61559;50.476;15.588;2024-01-07T03:25:49;97033.84;;;-0.80;77.02
73106;BME280;61559;50.476;15.588;2024-01-07T03:28:21;97034.92;;;-0.78;76.97
73106;BME280;61559;50.476;15.588;2024-01-07T03:30:52;97040.44;;;-0.77;77.04
73106;BME280;61559;50.476;15.588;2024-01-07T03:33:23;97040.35;;;-0.74;77.29
73106;BME280;61559;50.476;15.588;2024-01-07T03:35:55;97038.89;;;-0.73;77.18
73106;BME280;61559;50.476;15.588;2024-01-07T03:38:26;97037.39;;;-0.70;77.46
73106;BME280;61559;50.476;15.588;2024-01-07T03:40:57;97040.89;;;-0.67;77.30
73106;BME280;61559;50.476;15.588;2024-01-07T03:43:29;97037.77;;;-0.66;77.35
73106;BME280;61559;50.476;15.588;2024-01-07T03:46:01;97042.33;;;-0.63;77.34
73106;BME280;61559;50.476;15.588;2024-01-07T03:48:32;97044.71;;;-0.62;76.97
73106;BME280;61559;50.476;15.588;2024-01-07T03:51:04;97048.86;;;-0.62;77.51
73106;BME280;61559;50.476;15.588;2024-01-07T03:53:35;97052.36;;;-0.60;77.31
73106;BME280;61559;50.476;15.588;2024-01-07T03:56:07;97048.57;;;-0.60;76.54
73106;BME280;61559;50.476;15.588;2024-01-07T03:58:38;97045.94;;;-0.58;76.85
73106;BME280;61559;50.476;15.588;2024-01-07T04:01:09;97051.77;;;-0.57;76.47
73106;BME280;61559;50.476;15.588;2024-01-07T04:03:40;97050.41;;;-0.56;76.34
73106;BME280;61559;50.476;15.588;2024-01-07T04:06:10;97050.00;;;-0.56;76.05
73106;BME280;61559;50.476;15.588;2024-01-07T04:08:42;97055.02;;;-0.56;76.66
73106;BME280;61559;50.476;15.588;2024-01-07T04:11:13;97049.70;;;-0.57;76.58
73106;BME280;61559;50.476;15.588;2024-01-07T04:13:44;97045.70;;;-0.57;76.47
73106;BME280;61559;50.476;15.588;2024-01-07T04:16:19;97052.33;;;-0.58;76.17
73106;BME280;61559;50.476;15.588;2024-01-07T04:18:51;97051.20;;;-0.60;76.22
73106;BME280;61559;50.476;15.588;2024-01-07T04:21:23;97055.23;;;-0.62;76.37
73106;BME280;61559;50.476;15.588;2024-01-07T04:23:55;97058.83;;;-0.62;76.56
73106;BME280;61559;50.476;15.588;2024-01-07T04:26:27;97059.89;;;-0.62;76.41
73106;BME280;61559;50.476;15.588;2024-01-07T04:28:58;97058.91;;;-0.63;76.15
73106;BME280;61559;50.476;15.588;2024-01-07T04:31:31;97058.61;;;-0.64;75.72
73106;BME280;61559;50.476;15.588;2024-01-07T04:34:02;97060.89;;;-0.63;76.17
73106;BME280;61559;50.476;15.588;2024-01-07T04:36:33;97063.02;;;-0.62;76.75
73106;BME280;61559;50.476;15.588;2024-01-07T04:39:03;97063.73;;;-0.61;76.51
73106;BME280;61559;50.476;15.588;2024-01-07T04:41:34;97071.20;;;-0.64;75.85
73106;BME280;61559;50.476;15.588;2024-01-07T04:44:06;97071.36;;;-0.63;75.40
73106;BME280;61559;50.476;15.588;2024-01-07T04:46:39;97077.42;;;-0.63;76.13
73106;BME280;61559;50.476;15.588;2024-01-07T04:49:10;97084.91;;;-0.64;75.93
73106;BME280;61559;50.476;15.588;2024-01-07T04:51:42;97089.40;;;-0.66;75.34
73106;BME280;61559;50.476;15.588;2024-01-07T04:54:12;97091.15;;;-0.70;74.94
73106;BME280;61559;50.476;15.588;2024-01-07T04:56:43;97092.88;;;-0.75;74.47
73106;BME280;61559;50.476;15.588;2024-01-07T04:59:14;97095.78;;;-0.80;73.98
73106;BME280;61559;50.476;15.588;2024-01-07T05:01:46;97098.43;;;-0.83;74.52
73106;BME280;61559;50.476;15.588;2024-01-07T05:04:17;97102.12;;;-0.84;74.56
73106;BME280;61559;50.476;15.588;2024-01-07T05:06:49;97104.48;;;-0.86;74.22
73106;BME280;61559;50.476;15.588;2024-01-07T05:09:18;97108.45;;;-0.88;74.15
73106;BME280;61559;50.476;15.588;2024-01-07T05:11:50;97113.17;;;-0.91;73.84
73106;BME280;61559;50.476;15.588;2024-01-07T05:14:21;97118.77;;;-0.92;74.27
73106;BME280;61559;50.476;15.588;2024-01-07T05:16:54;97123.17;;;-0.92;74.88
73106;BME280;61559;50.476;15.588;2024-01-07T05:19:25;97131.70;;;-0.94;74.73
73106;BME280;61559;50.476;15.588;2024-01-07T05:21:58;97132.40;;;-0.95;75.10
73106;BME280;61559;50.476;15.588;2024-01-07T05:24:31;97134.81;;;-0.95;74.97
73106;BME280;61559;50.476;15.588;2024-01-07T05:27:04;97139.15;;;-0.97;74.60
73106;BME280;61559;50.476;15.588;2024-01-07T05:29:35;97139.34;;;-0.99;74.72
73106;BME280;61559;50.476;15.588;2024-01-07T05:32:07;97147.83;;;-1.00;74.57
73106;BME280;61559;50.476;15.588;2024-01-07T05:34:38;97151.36;;;-1.01;74.95
73106;BME280;61559;50.476;15.588;2024-01-07T05:37:10;97153.13;;;-1.01;74.57
73106;BME280;61559;50.476;15.588;2024-01-07T05:39:42;97151.88;;;-0.99;74.80
73106;BME280;61559;50.476;15.588;2024-01-07T05:42:13;97153.31;;;-0.96;74.85
73106;BME280;61559;50.476;15.588;2024-01-07T05:44:44;97152.83;;;-0.94;75.21
73106;BME280;61559;50.476;15.588;2024-01-07T05:47:15;97150.71;;;-0.94;74.71
73106;BME280;61559;50.476;15.588;2024-01-07T05:49:46;97152.94;;;-0.94;74.42
73106;BME280;61559;50.476;15.588;2024-01-07T05:52:16;97152.77;;;-0.94;74.96
73106;BME280;61559;50.476;15.588;2024-01-07T05:54:48;97153.74;;;-0.94;74.84
73106;BME280;61559;50.476;15.588;2024-01-07T05:57:19;97157.36;;;-0.91;75.12
73106;BME280;61559;50.476;15.588;2024-01-07T05:59:50;97157.36;;;-0.90;74.26
73106;BME280;61559;50.476;15.588;2024-01-07T06:02:24;97157.92;;;-0.89;74.35
73106;BME280;61559;50.476;15.588;2024-01-07T06:04:55;97160.05;;;-0.87;74.40
73106;BME280;61559;50.476;15.588;2024-01-07T06:07:26;97160.47;;;-0.87;74.12
73106;BME280;61559;50.476;15.588;2024-01-07T06:09:58;97160.92;;;-0.85;74.30
73106;BME280;61559;50.476;15.588;2024-01-07T06:12:30;97158.85;;;-0.86;74.21
73106;BME280;61559;50.476;15.588;2024-01-07T06:15:00;97159.20;;;-0.87;74.17
73106;BME280;61559;50.476;15.588;2024-01-07T06:17:33;97160.96;;;-0.88;74.58
73106;BME280;61559;50.476;15.588;2024-01-07T06:20:06;97166.72;;;-0.89;74.70
73106;BME280;61559;50.476;15.588;2024-01-07T06:22:38;97167.62;;;-0.91;73.72
73106;BME280;61559;50.476;15.588;2024-01-07T06:25:09;97170.64;;;-0.93;73.21
73106;BME280;61559;50.476;15.588;2024-01-07T06:27:41;97170.98;;;-0.94;73.79
73106;BME280;61559;50.476;15.588;2024-01-07T06:30:13;97175.27;;;-0.94;73.62
73106;BME280;61559;50.476;15.588;2024-01-07T06:32:47;97176.42;;;-0.96;73.37
73106;BME280;61559;50.476;15.588;2024-01-07T06:35:19;97179.52;;;-0.94;74.04
73106;BME280;61559;50.476;15.588;2024-01-07T06:37:50;97184.84;;;-0.92;74.16
73106;BME280;61559;50.476;15.588;2024-01-07T06:40:22;97189.09;;;-0.92;74.05
73106;BME280;61559;50.476;15.588;2024-01-07T06:42:54;97191.58;;;-0.90;74.41
73106;BME280;61559;50.476;15.588;2024-01-07T06:45:26;97194.58;;;-0.89;74.43
73106;BME280;61559;50.476;15.588;2024-01-07T06:47:57;97196.95;;;-0.89;73.92
73106;BME280;61559;50.476;15.588;2024-01-07T06:50:31;97200.85;;;-0.89;73.53
73106;BME280;61559;50.476;15.588;2024-01-07T06:53:02;97202.83;;;-0.89;73.35
73106;BME280;61559;50.476;15.588;2024-01-07T06:55:33;97204.55;;;-0.88;73.48
73106;BME280;61559;50.476;15.588;2024-01-07T06:58:04;97203.64;;;-0.88;73.34
73106;BME280;61559;50.476;15.588;2024-01-07T07:00:36;97206.11;;;-0.86;73.12
73106;BME280;61559;50.476;15.588;2024-01-07T07:03:07;97206.88;;;-0.87;72.79
73106;BME280;61559;50.476;15.588;2024-01-07T07:05:39;97205.20;;;-0.88;72.13
73106;BME280;61559;50.476;15.588;2024-01-07T07:08:08;97206.97;;;-0.88;72.30
73106;BME280;61559;50.476;15.588;2024-01-07T07:10:40;97215.66;;;-0.90;72.61
73106;BME280;61559;50.476;15.588;2024-01-07T07:13:12;97217.27;;;-0.91;72.59
73106;BME280;61559;50.476;15.588;2024-01-07T07:15:44;97224.64;;;-0.91;72.37
73106;BME280;61559;50.476;15.588;2024-01-07T07:18:15;97226.25;;;-0.91;71.85
73106;BME280;61559;50.476;15.588;2024-01-07T07:20:45;97229.19;;;-0.91;72.04
73106;BME280;61559;50.476;15.588;2024-01-07T07:23:16;97232.22;;;-0.91;72.67
73106;BME280;61559;50.476;15.588;2024-01-07T07:25:46;97235.71;;;-0.91;72.77
73106;BME280;61559;50.476;15.588;2024-01-07T07:28:17;97234.39;;;-0.91;73.17
73106;BME280;61559;50.476;15.588;2024-01-07T07:30:49;97234.65;;;-0.91;72.96
73106;BME280;61559;50.476;15.588;2024-01-07T07:33:21;97238.95;;;-0.91;72.53
73106;BME280;61559;50.476;15.588;2024-01-07T07:35:53;97241.31;;;-0.92;72.42
73106;BME280;61559;50.476;15.588;2024-01-07T07:38:24;97245.65;;;-0.93;72.35
73106;BME280;61559;50.476;15.588;2024-01-07T07:40:55;97254.36;;;-0.92;73.03
73106;BME280;61559;50.476;15.588;2024-01-07T07:43:26;97254.20;;;-0.92;72.58
73106;BME280;61559;50.476;15.588;2024-01-07T07:45:56;97261.48;;;-0.93;72.12
73106;BME280;61559;50.476;15.588;2024-01-07T07:48:27;97267.54;;;-0.93;72.78
73106;BME280;61559;50.476;15.588;2024-01-07T07:50:59;97268.06;;;-0.91;72.89
73106;BME280;61559;50.476;15.588;2024-01-07T07:53:30;97269.40;;;-0.89;73.02
73106;BME280;61559;50.476;15.588;2024-01-07T07:56:02;97277.15;;;-0.85;73.23
73106;BME280;61559;50.476;15.588;2024-01-07T07:58:33;97283.64;;;-0.82;73.02
73106;BME280;61559;50.476;15.588;2024-01-07T08:01:05;97282.20;;;-0.80;72.78
73106;BME280;61559;50.476;15.588;2024-01-07T08:03:36;97293.78;;;-0.80;72.76
73106;BME280;61559;50.476;15.588;2024-01-07T08:06:08;97292.31;;;-0.80;72.72
73106;BME280;61559;50.476;15.588;2024-01-07T08:08:41;97295.95;;;-0.81;72.58
73106;BME280;61559;50.476;15.588;2024-01-07T08:11:13;97295.44;;;-0.81;73.27
73106;BME280;61559;50.476;15.588;2024-01-07T08:13:44;97305.08;;;-0.79;73.15
73106;BME280;61559;50.476;15.588;2024-01-07T08:16:15;97303.77;;;-0.78;73.34
73106;BME280;61559;50.476;15.588;2024-01-07T08:18:46;97305.73;;;-0.78;73.37
73106;BME280;61559;50.476;15.588;2024-01-07T08:21:18;97307.55;;;-0.79;73.37
73106;BME280;61559;50.476;15.588;2024-01-07T08:23:50;97308.40;;;-0.79;73.50
73106;BME280;61559;50.476;15.588;2024-01-07T08:26:21;97315.39;;;-0.78;73.66
73106;BME280;61559;50.476;15.588;2024-01-07T08:28:53;97312.13;;;-0.76;73.86
73106;BME280;61559;50.476;15.588;2024-01-07T08:31:24;97313.79;;;-0.72;74.22
73106;BME280;61559;50.476;15.588;2024-01-07T08:33:55;97317.80;;;-0.71;74.14
73106;BME280;61559;50.476;15.588;2024-01-07T08:36:27;97319.27;;;-0.71;74.04
73106;BME280;61559;50.476;15.588;2024-01-07T08:38:59;97316.70;;;-0.70;74.26
73106;BME280;61559;50.476;15.588;2024-01-07T08:41:30;97320.27;;;-0.66;74.28
73106;BME280;61559;50.476;15.588;2024-01-07T08:44:02;97319.54;;;-0.63;74.55
73106;BME280;61559;50.476;15.588;2024-01-07T08:46:33;97321.71;;;-0.62;73.97
73106;BME280;61559;50.476;15.588;2024-01-07T08:49:04;97328.44;;;-0.63;73.36
73106;BME280;61559;50.476;15.588;2024-01-07T08:51:34;97334.14;;;-0.64;73.24
73106;BME280;61559;50.476;15.588;2024-01-07T08:54:05;97331.19;;;-0.67;72.95
73106;BME280;61559;50.476;15.588;2024-01-07T08:56:36;97342.21;;;-0.67;73.22
73106;BME280;61559;50.476;15.588;2024-01-07T08:59:09;97343.64;;;-0.65;73.12
73106;BME280;61559;50.476;15.588;2024-01-07T09:01:40;97346.96;;;-0.62;72.91
73106;BME280;61559;50.476;15.588;2024-01-07T09:04:11;97352.52;;;-0.59;73.26
73106;BME280;61559;50.476;15.588;2024-01-07T09:06:43;97352.39;;;-0.55;72.94
73106;BME280;61559;50.476;15.588;2024-01-07T09:09:14;97353.52;;;-0.53;72.70
73106;BME280;61559;50.476;15.588;2024-01-07T09:11:45;97349.80;;;-0.51;72.23
73106;BME280;61559;50.476;15.588;2024-01-07T09:14:16;97346.88;;;-0.51;71.39
73106;BME280;61559;50.476;15.588;2024-01-07T09:16:47;97351.20;;;-0.48;70.07
73106;BME280;61559;50.476;15.588;2024-01-07T09:19:19;97357.27;;;-0.48;69.23
73106;BME280;61559;50.476;15.588;2024-01-07T09:21:50;97359.77;;;-0.46;69.06
73106;BME280;61559;50.476;15.588;2024-01-07T09:24:22;97365.63;;;-0.42;68.80
73106;BME280;61559;50.476;15.588;2024-01-07T09:26:53;97365.95;;;-0.40;67.14
73106;BME280;61559;50.476;15.588;2024-01-07T09:29:26;97363.15;;;-0.42;66.19
73106;BME280;61559;50.476;15.588;2024-01-07T09:31:56;97365.26;;;-0.39;67.59
73106;BME280;61559;50.476;15.588;2024-01-07T09:34:29;97369.55;;;-0.35;67.28
73106;BME280;61559;50.476;15.588;2024-01-07T09:37:01;97371.05;;;-0.36;65.76
73106;BME280;61559;50.476;15.588;2024-01-07T09:39:32;97366.30;;;-0.36;66.43
73106;BME280;61559;50.476;15.588;2024-01-07T09:42:04;97367.16;;;-0.35;66.11
73106;BME280;61559;50.476;15.588;2024-01-07T09:44:35;97364.14;;;-0.33;66.03
73106;BME280;61559;50.476;15.588;2024-01-07T09:47:10;97370.04;;;-0.31;66.22
73106;BME280;61559;50.476;15.588;2024-01-07T09:49:42;97366.93;;;-0.34;64.29
73106;BME280;61559;50.476;15.588;2024-01-07T09:52:14;97369.20;;;-0.34;65.16
73106;BME280;61559;50.476;15.588;2024-01-07T09:54:51;97362.66;;;-0.36;65.16
73106;BME280;61559;50.476;15.588;2024-01-07T09:57:22;97363.17;;;-0.34;65.87
73106;BME280;61559;50.476;15.588;2024-01-07T09:59:54;97359.34;;;-0.32;65.61
73106;BME280;61559;50.476;15.588;2024-01-07T10:02:25;97361.20;;;-0.29;65.50
73106;BME280;61559;50.476;15.588;2024-01-07T10:04:56;97360.27;;;-0.24;65.87
73106;BME280;61559;50.476;15.588;2024-01-07T10:07:27;97366.95;;;-0.21;65.38
73106;BME280;61559;50.476;15.588;2024-01-07T10:09:59;97365.77;;;-0.17;65.65
73106;BME280;61559;50.476;15.588;2024-01-07T10:12:40;97364.59;;;-0.11;64.95
73106;BME280;61559;50.476;15.588;2024-01-07T10:15:12;97364.42;;;-0.07;64.31
73106;BME280;61559;50.476;15.588;2024-01-07T10:17:44;97366.42;;;-0.06;63.53
73106;BME280;61559;50.476;15.588;2024-01-07T10:20:17;97366.35;;;-0.07;63.83
73106;BME280;61559;50.476;15.588;2024-01-07T10:22:51;97364.80;;;-0.05;64.01
73106;BME280;61559;50.476;15.588;2024-01-07T10:25:22;97365.64;;;-0.02;64.07
73106;BME280;61559;50.476;15.588;2024-01-07T10:27:54;97360.36;;;0.02;63.60
73106;BME280;61559;50.476;15.588;2024-01-07T10:30:25;97370.66;;;0.03;63.72
73106;BME280;61559;50.476;15.588;2024-01-07T10:32:58;97373.25;;;0.06;63.69
73106;BME280;61559;50.476;15.588;2024-01-07T10:35:34;97374.93;;;0.05;63.05
73106;BME280;61559;50.476;15.588;2024-01-07T10:38:05;97373.15;;;0.04;63.30
73106;BME280;61559;50.476;15.588;2024-01-07T10:40:37;97373.61;;;0.05;62.85
73106;BME280;61559;50.476;15.588;2024-01-07T10:43:09;97372.25;;;0.06;62.70
73106;BME280;61559;50.476;15.588;2024-01-07T10:45:40;97370.08;;;0.07;62.76
73106;BME280;61559;50.476;15.588;2024-01-07T10:48:12;97366.16;;;0.10;63.19
73106;BME280;61559;50.476;15.588;2024-01-07T10:50:47;97369.09;;;0.16;62.55
73106;BME280;61559;50.476;15.588;2024-01-07T10:53:22;97364.79;;;0.16;61.52
73106;BME280;61559;50.476;15.588;2024-01-07T10:55:57;97365.52;;;0.18;62.18
73106;BME280;61559;50.476;15.588;2024-01-07T10:58:31;97367.71;;;0.21;62.09
73106;BME280;61559;50.476;15.588;2024-01-07T11:01:04;97370.48;;;0.25;61.84
73106;BME280;61559;50.476;15.588;2024-01-07T11:03:43;97368.95;;;0.24;60.77
73106;BME280;61559;50.476;15.588;2024-01-07T11:06:22;97370.41;;;0.22;60.25
73106;BME280;61559;50.476;15.588;2024-01-07T11:09:01;97370.00;;;0.22;60.91
73106;BME280;61559;50.476;15.588;2024-01-07T11:11:38;97374.21;;;0.23;60.61
73106;BME280;61559;50.476;15.588;2024-01-07T11:14:38;97378.51;;;0.22;60.12
73106;BME280;61559;50.476;15.588;2024-01-07T11:17:10;97375.00;;;0.21;59.94
73106;BME280;61559;50.476;15.588;2024-01-07T11:19:51;97374.73;;;0.18;58.98
73106;BME280;61559;50.476;15.588;2024-01-07T11:22:26;97377.33;;;0.14;59.44
73106;BME280;61559;50.476;15.588;2024-01-07T11:24:59;97377.67;;;0.13;59.42
73106;BME280;61559;50.476;15.588;2024-01-07T11:27:33;97384.90;;;0.11;58.97
73106;BME280;61559;50.476;15.588;2024-01-07T11:30:08;97377.66;;;0.05;57.98
73106;BME280;61559;50.476;15.588;2024-01-07T11:32:49;97379.27;;;-0.01;59.24
73106;BME280;61559;50.476;15.588;2024-01-07T11:35:56;97377.98;;;0.02;59.78
73106;BME280;61559;50.476;15.588;2024-01-07T11:38:28;97379.02;;;0.04;59.86
73106;BME280;61559;50.476;15.588;2024-01-07T11:40:59;97381.59;;;0.02;59.19
73106;BME280;61559;50.476;15.588;2024-01-07T11:43:32;97382.15;;;0.03;60.46
73106;BME280;61559;50.476;15.588;2024-01-07T11:46:04;97380.36;;;0.07;60.05
73106;BME280;61559;50.476;15.588;2024-01-07T11:48:36;97378.67;;;0.11;60.63
73106;BME280;61559;50.476;15.588;2024-01-07T11:51:07;97378.42;;;0.11;59.52
73106;BME280;61559;50.476;15.588;2024-01-07T11:53:38;97378.52;;;0.11;59.78
73106;BME280;61559;50.476;15.588;2024-01-07T11:56:11;97378.25;;;0.09;58.62
73106;BME280;61559;50.476;15.588;2024-01-07T11:58:43;97381.66;;;0.03;58.60
73106;BME280;61559;50.476;15.588;2024-01-07T12:01:15;97380.96;;;-0.04;58.60
73106;BME280;61559;50.476;15.588;2024-01-07T12:03:47;97379.61;;;-0.07;59.45
73106;BME280;61559;50.476;15.588;2024-01-07T12:06:20;97380.98;;;-0.06;59.97
73106;BME280;61559;50.476;15.588;2024-01-07T12:08:51;97381.16;;;-0.04;60.29
73106;BME280;61559;50.476;15.588;2024-01-07T12:11:23;97382.25;;;0.02;60.88
73106;BME280;61559;50.476;15.588;2024-01-07T12:13:52;97381.96;;;0.04;59.33
73106;BME280;61559;50.476;15.588;2024-01-07T12:16:23;97382.80;;;0.03;59.79
73106;BME280;61559;50.476;15.588;2024-01-07T12:18:54;97381.30;;;0.04;60.27
73106;BME280;61559;50.476;15.588;2024-01-07T12:21:24;97383.09;;;0.06;59.35
73106;BME280;61559;50.476;15.588;2024-01-07T12:23:57;97388.08;;;0.01;58.88
73106;BME280;61559;50.476;15.588;2024-01-07T12:26:30;97386.39;;;-0.02;58.92
73106;BME280;61559;50.476;15.588;2024-01-07T12:29:03;97390.44;;;-0.03;58.77
73106;BME280;61559;50.476;15.588;2024-01-07T12:31:36;97389.02;;;-0.03;59.11
73106;BME280;61559;50.476;15.588;2024-01-07T12:34:09;97393.39;;;-0.01;59.22
73106;BME280;61559;50.476;15.588;2024-01-07T12:36:40;97392.98;;;0.00;59.46
73106;BME280;61559;50.476;15.588;2024-01-07T12:39:11;97391.36;;;0.03;59.29
73106;BME280;61559;50.476;15.588;2024-01-07T12:41:43;97395.34;;;0.06;58.54
73106;BME280;61559;50.476;15.588;2024-01-07T12:44:12;97392.03;;;0.04;58.18
73106;BME280;61559;50.476;15.588;2024-01-07T12:46:43;97394.70;;;0.01;58.09
73106;BME280;61559;50.476;15.588;2024-01-07T12:49:15;97393.30;;;-0.01;58.69
73106;BME280;61559;50.476;15.588;2024-01-07T12:51:47;97395.41;;;-0.01;58.03
73106;BME280;61559;50.476;15.588;2024-01-07T12:54:18;97397.16;;;-0.04;57.42
73106;BME280;61559;50.476;15.588;2024-01-07T12:56:51;97400.53;;;-0.07;56.98
73106;BME280;61559;50.476;15.588;2024-01-07T12:59:23;97399.33;;;-0.11;56.63
73106;BME280;61559;50.476;15.588;2024-01-07T13:01:54;97400.07;;;-0.13;57.91
73106;BME280;61559;50.476;15.588;2024-01-07T13:04:24;97402.58;;;-0.10;57.85
73106;BME280;61559;50.476;15.588;2024-01-07T13:06:55;97403.96;;;-0.09;57.89
73106;BME280;61559;50.476;15.588;2024-01-07T13:09:27;97402.32;;;-0.05;57.67
73106;BME280;61559;50.476;15.588;2024-01-07T13:11:58;97406.98;;;-0.04;57.33
73106;BME280;61559;50.476;15.588;2024-01-07T13:14:30;97412.88;;;-0.02;57.21
73106;BME280;61559;50.476;15.588;2024-01-07T13:17:01;97415.30;;;-0.03;56.35